Flight Track Log - Related Links

Times and Time Zones

All times are in EDT time to prevent confusion due to time zone crossing. See the A6-EWE flight status page for this flight to view local times or setup timezone preferences in your user account.


Time Position Orientation Groundspeed Altitude Reporting Facility
EDT Latitude Longitude Course Direction KTS MPH feet Rate Location/Type
Sun 11:43:58 PM 24.9590 54.9850 252° West 389 448 12,600  Level FlightAware ADS-B
Sun 11:44:00 PM 24.7849 53.7759 252° West  Level Estimated
Sun 11:44:33 PM 24.8870 54.9680 192° South 393 452 15,100  Level FlightAware ADS-B
Sun 11:45:13 PM 24.8200 54.9380 202° Southwest 407 468 16,500 2,329 Climbing FlightAware ADS-B
Sun 11:45:58 PM 24.7510 54.8930 211° Southwest 399 459 18,400 2,400 Climbing FlightAware ADS-B
Sun 11:46:38 PM 24.6890 54.8510 212° Southwest 399 459 19,900 2,067 Climbing FlightAware ADS-B
Sun 11:47:28 PM 24.6030 54.7940 211° Southwest 416 479 21,500 2,000 Climbing FlightAware ADS-B
Sun 11:48:08 PM 24.5400 54.7530 211° Southwest 412 474 22,900 2,000 Climbing FlightAware ADS-B
Sun 11:48:43 PM 24.4780 54.7120 211° Southwest 417 480 24,000 1,765 Climbing FlightAware ADS-B
Sun 11:49:33 PM 24.3940 54.6560 211° Southwest 423 487 25,400 1,600 Climbing FlightAware ADS-B
Sun 11:50:13 PM 24.3270 54.6060 214° Southwest 434 499 26,400 1,425 Climbing FlightAware ADS-B
Sun 11:50:53 PM 24.2620 54.5570 215° Southwest 431 496 27,300 1,275 Climbing FlightAware ADS-B
Sun 11:51:33 PM 24.2140 54.4900 232° Southwest 429 494 28,100 1,271 Climbing FlightAware ADS-B
Sun 11:52:18 PM 24.1670 54.3980 241° Southwest 441 507 29,100 1,267 Climbing FlightAware ADS-B
Sun 11:53:03 PM 24.1250 54.3150 241° Southwest 436 502 30,000 635 Climbing FlightAware ADS-B
Sun 11:53:43 PM 24.0840 54.2370 240° Southwest 432 497 30,000  Level FlightAware ADS-B
Sun 11:54:23 PM 24.0440 54.1600 240° Southwest 433 498 30,000  Level FlightAware ADS-B
Sun 11:55:08 PM 23.9970 54.0680 241° Southwest 433 498 30,000  Level FlightAware ADS-B
Sun 11:55:48 PM 23.9590 53.9970 240° Southwest 430 495 30,000  Level FlightAware ADS-B
Sun 11:56:33 PM 23.9120 53.9090 240° Southwest 431 496 30,000  Level FlightAware ADS-B
Sun 11:57:13 PM 23.8740 53.8360 240° Southwest 431 496 30,000  Level FlightAware ADS-B
Sun 11:57:53 PM 23.8320 53.7580 240° Southwest 430 495 30,000  Level FlightAware ADS-B
Sun 11:58:38 PM 23.7890 53.6770 240° Southwest 430 495 30,000  Level FlightAware ADS-B
Sun 11:59:18 PM 23.7460 53.5960 240° Southwest 430 495 30,000  Level FlightAware ADS-B
Mon 12:00:03 AM 23.7040 53.5170 240° Southwest 430 495 30,000  Level FlightAware ADS-B
Mon 12:00:43 AM 23.6620 53.4380 240° Southwest 430 495 30,000  Level FlightAware ADS-B
Mon 12:01:23 AM 23.6200 53.3580 240° Southwest 431 496 30,000  Level FlightAware ADS-B
Mon 12:02:08 AM 23.5750 53.2730 240° Southwest 431 496 30,000  Level FlightAware ADS-B
Mon 12:02:48 AM 23.5340 53.1970 240° Southwest 432 497 30,000  Level FlightAware ADS-B
Mon 12:03:33 AM 23.4930 53.1200 240° Southwest 432 497 30,000  Level FlightAware ADS-B
Mon 12:04:13 AM 23.4490 53.0360 240° Southwest 432 497 30,000  Level FlightAware ADS-B
Mon 12:04:53 AM 23.4160 52.9750 239° Southwest 432 497 30,000  Level FlightAware ADS-B
Mon 12:05:33 AM 23.3740 52.8970 240° Southwest 432 497 30,000  Level FlightAware ADS-B
Mon 12:06:33 AM 23.3140 52.7800 241° Southwest 432 497 30,000  Level FlightAware ADS-B
Mon 12:07:13 AM 23.2810 52.7160 241° Southwest 432 497 30,000  Level FlightAware ADS-B
Mon 12:07:48 AM 23.2360 52.6250 242° Southwest 437 503 30,000  Level FlightAware ADS-B
Mon 12:08:33 AM 23.1900 52.5490 237° Southwest 437 503 30,000  Level FlightAware ADS-B
Mon 12:09:13 AM 23.1390 52.4830 230° Southwest 437 503 30,000  Level FlightAware ADS-B
Mon 12:10:03 AM 23.0960 52.4020 240° Southwest 437 503 30,000  Level FlightAware ADS-B
Mon 12:10:43 AM 23.0620 52.3380 240° Southwest 437 503 30,000  Level FlightAware ADS-B
Mon 12:11:03 AM 22.8720 52.4940 143° Southeast 30,000  Level FlightAware ADS-B
Mon 12:11:28 AM 22.8180 52.4770 196° South 457 526 30,000  Level FlightAware ADS-B
Mon 12:12:03 AM 22.7570 52.4500 202° Southwest 457 526 30,000  Level FlightAware ADS-B
Mon 12:12:53 AM 22.6730 52.4140 202° Southwest 457 526 30,000  Level FlightAware ADS-B
Mon 12:13:33 AM 22.6070 52.3840 203° Southwest 457 526 30,000  Level FlightAware ADS-B
Mon 12:14:13 AM 22.5400 52.3550 202° Southwest 457 526 30,000  Level FlightAware ADS-B
Mon 12:14:53 AM 22.4730 52.3260 202° Southwest 457 526 30,000  Level FlightAware ADS-B
Mon 12:15:33 AM 22.4070 52.2970 202° Southwest 457 526 30,000  Level FlightAware ADS-B
Mon 12:16:13 AM 22.3400 52.2680 202° Southwest 457 526 30,000  Level FlightAware ADS-B
Mon 12:17:03 AM 22.2570 52.2310 202° Southwest 457 526 30,000  Level FlightAware ADS-B
Mon 12:17:43 AM 22.1900 52.2020 202° Southwest 457 526 30,000  Level FlightAware ADS-B
Mon 12:18:23 AM 22.1230 52.1730 202° Southwest 457 526 30,000  Level FlightAware ADS-B
Mon 12:19:13 AM 22.0400 52.1370 202° Southwest 457 526 30,000  Level FlightAware ADS-B
Mon 12:19:53 AM 21.9730 52.1080 202° Southwest 457 526 30,000  Level FlightAware ADS-B
Mon 12:20:33 AM 21.9070 52.0790 202° Southwest 457 526 30,000  Level FlightAware ADS-B
Mon 12:21:13 AM 21.8400 52.0500 202° Southwest 457 526 30,000 11 Level FlightAware ADS-B
Mon 12:23:00 AM 21.7641 51.8219 250° West  Level Estimated
Mon 12:24:00 AM 21.7214 51.6940 250° West  Level Estimated
Mon 12:25:00 AM 21.6786 51.5663 250° West  Level Estimated
Mon 12:26:00 AM 21.6357 51.4386 250° West  Level Estimated
Mon 12:27:00 AM 21.5927 51.3110 250° West  Level Estimated
Mon 12:28:00 AM 21.5496 51.1835 250° West  Level Estimated
Mon 12:29:00 AM 21.5064 51.0561 250° West  Level Estimated
Mon 12:30:00 AM 21.4631 50.9287 250° West  Level Estimated
Mon 12:31:00 AM 21.4197 50.8014 250° West  Level Estimated
Mon 12:32:00 AM 21.3762 50.6742 250° West  Level Estimated
Mon 12:33:00 AM 21.3326 50.5471 250° West  Level Estimated
Mon 12:34:00 AM 21.2890 50.4200 250° West  Level Estimated
Mon 12:35:00 AM 21.2452 50.2930 250° West  Level Estimated
Mon 12:36:00 AM 21.2013 50.1661 250° West  Level Estimated
Mon 12:37:00 AM 21.1574 50.0392 250° West  Level Estimated
Mon 12:38:00 AM 21.1133 49.9125 250° West  Level Estimated
Mon 12:39:00 AM 21.0692 49.7858 250° West  Level Estimated
Mon 12:40:00 AM 21.0249 49.6592 249° West  Level Estimated
Mon 12:41:00 AM 20.9806 49.5326 249° West  Level Estimated
Mon 12:42:00 AM 20.9362 49.4062 249° West  Level Estimated
Mon 12:43:00 AM 20.8916 49.2798 249° West  Level Estimated
Mon 12:44:00 AM 20.8470 49.1535 249° West  Level Estimated
Mon 12:45:00 AM 20.8023 49.0272 249° West  Level Estimated
Mon 12:46:00 AM 20.7575 48.9011 249° West  Level Estimated
Mon 12:47:00 AM 20.7126 48.7750 249° West  Level Estimated
Mon 12:48:00 AM 20.6677 48.6490 249° West  Level Estimated
Mon 12:49:00 AM 20.6226 48.5230 249° West  Level Estimated
Mon 12:50:00 AM 20.5774 48.3972 249° West  Level Estimated
Mon 12:51:00 AM 20.5322 48.2714 249° West  Level Estimated
Mon 12:52:00 AM 20.4868 48.1457 249° West  Level Estimated
Mon 12:53:00 AM 20.4414 48.0201 249° West  Level Estimated
Mon 12:54:00 AM 20.3958 47.8945 249° West  Level Estimated
Mon 12:55:00 AM 20.3502 47.7690 249° West  Level Estimated
Mon 12:56:00 AM 20.3045 47.6436 249° West  Level Estimated
Mon 12:57:00 AM 20.2587 47.5182 249° West  Level Estimated
Mon 12:58:00 AM 20.2128 47.3930 249° West  Level Estimated
Mon 12:59:00 AM 20.1668 47.2678 249° West  Level Estimated
Mon 01:00:00 AM 20.1208 47.1427 249° West  Level Estimated
Mon 01:01:00 AM 20.0746 47.0176 249° West  Level Estimated
Mon 01:02:00 AM 20.0284 46.8926 249° West  Level Estimated
Mon 01:03:00 AM 19.9821 46.7677 248° West  Level Estimated
Mon 01:04:00 AM 19.9357 46.6429 248° West  Level Estimated
Mon 01:05:00 AM 19.8892 46.5182 248° West  Level Estimated
Mon 01:06:00 AM 19.8426 46.3935 248° West  Level Estimated
Mon 01:07:00 AM 19.7959 46.2689 248° West  Level Estimated
Mon 01:08:00 AM 19.7491 46.1443 248° West  Level Estimated
Mon 01:09:00 AM 19.7023 46.0199 248° West  Level Estimated
Mon 01:10:00 AM 19.6554 45.8955 248° West  Level Estimated
Mon 01:11:00 AM 19.6083 45.7712 248° West  Level Estimated
Mon 01:12:00 AM 19.5612 45.6469 248° West  Level Estimated
Mon 01:13:00 AM 19.5140 45.5228 248° West  Level Estimated
Mon 01:14:00 AM 19.4668 45.3987 248° West  Level Estimated
Mon 01:15:00 AM 19.4194 45.2746 248° West  Level Estimated
Mon 01:16:00 AM 19.3720 45.1507 248° West  Level Estimated
Mon 01:17:00 AM 19.3244 45.0268 248° West  Level Estimated
Mon 01:18:00 AM 19.2768 44.9030 248° West  Level Estimated
Mon 01:19:00 AM 19.2292 44.7793 248° West  Level Estimated
Mon 01:20:00 AM 19.1814 44.6556 248° West  Level Estimated
Mon 01:21:00 AM 19.1335 44.5320 248° West  Level Estimated
Mon 01:22:00 AM 19.0856 44.4085 248° West  Level Estimated
Mon 01:23:00 AM 19.0375 44.2850 248° West  Level Estimated
Mon 01:24:00 AM 18.9895 44.1617 248° West  Level Estimated
Mon 01:25:00 AM 18.9413 44.0383 248° West  Level Estimated
Mon 01:26:00 AM 18.8930 43.9151 248° West  Level Estimated
Mon 01:27:00 AM 18.8446 43.7920 247° West  Level Estimated
Mon 01:28:00 AM 18.7962 43.6689 247° West  Level Estimated
Mon 01:29:00 AM 18.7477 43.5458 247° West  Level Estimated
Mon 01:30:00 AM 18.6991 43.4229 247° West  Level Estimated
Mon 01:31:00 AM 18.6504 43.3000 247° West  Level Estimated
Mon 01:32:00 AM 18.6017 43.1772 247° West  Level Estimated
Mon 01:33:00 AM 18.5529 43.0545 247° West  Level Estimated
Mon 01:34:00 AM 18.5040 42.9318 247° West  Level Estimated
Mon 01:35:00 AM 18.4550 42.8092 247° West  Level Estimated
Mon 01:36:00 AM 18.4059 42.6867 247° West  Level Estimated
Mon 01:37:00 AM 18.3567 42.5642 247° West  Level Estimated
Mon 01:38:00 AM 18.3075 42.4418 247° West  Level Estimated
Mon 01:39:00 AM 18.2582 42.3195 247° West  Level Estimated
Mon 01:40:00 AM 18.2088 42.1973 247° West  Level Estimated
Mon 01:41:00 AM 18.1594 42.0751 247° West  Level Estimated
Mon 01:42:00 AM 18.1098 41.9530 247° West  Level Estimated
Mon 01:43:00 AM 18.0602 41.8309 247° West  Level Estimated
Mon 01:44:00 AM 18.0105 41.7090 247° West  Level Estimated
Mon 01:45:00 AM 17.9608 41.5870 247° West  Level Estimated
Mon 01:46:00 AM 17.9109 41.4652 247° West  Level Estimated
Mon 01:47:00 AM 17.8610 41.3434 247° West  Level Estimated
Mon 01:48:00 AM 17.8110 41.2217 247° West  Level Estimated
Mon 01:49:00 AM 17.7610 41.1001 247° West  Level Estimated
Mon 01:50:00 AM 17.7108 40.9785 247° West  Level Estimated
Mon 01:51:00 AM 17.6606 40.8570 247° West  Level Estimated
Mon 01:52:00 AM 17.6103 40.7356 247° West  Level Estimated
Mon 01:53:00 AM 17.5600 40.6143 246° West  Level Estimated
Mon 01:54:00 AM 17.5095 40.4930 246° West  Level Estimated
Mon 01:55:00 AM 17.4590 40.3717 246° West  Level Estimated
Mon 01:56:00 AM 17.4084 40.2506 246° West  Level Estimated
Mon 01:57:00 AM 17.3578 40.1295 246° West  Level Estimated
Mon 01:58:00 AM 17.3070 40.0085 246° West  Level Estimated
Mon 01:59:00 AM 17.2562 39.8875 246° West  Level Estimated
Mon 02:00:00 AM 17.2054 39.7666 246° West  Level Estimated
Mon 02:01:00 AM 17.1544 39.6458 246° West  Level Estimated
Mon 02:02:00 AM 17.1034 39.5250 246° West  Level Estimated
Mon 02:03:00 AM 17.0523 39.4044 246° West  Level Estimated
Mon 02:04:00 AM 17.0011 39.2837 246° West  Level Estimated
Mon 02:05:00 AM 16.9499 39.1632 246° West  Level Estimated
Mon 02:06:00 AM 16.8986 39.0427 246° West  Level Estimated
Mon 02:07:00 AM 16.8472 38.9222 246° West  Level Estimated
Mon 02:08:00 AM 16.7958 38.8019 246° West  Level Estimated
Mon 02:09:00 AM 16.7442 38.6816 246° West  Level Estimated
Mon 02:10:00 AM 16.6927 38.5614 246° West  Level Estimated
Mon 02:11:00 AM 16.6410 38.4412 246° West  Level Estimated
Mon 02:12:00 AM 16.5893 38.3211 246° West  Level Estimated
Mon 02:13:00 AM 16.5375 38.2010 246° West  Level Estimated
Mon 02:14:00 AM 16.4856 38.0811 246° West  Level Estimated
Mon 02:15:00 AM 16.4337 37.9612 246° West  Level Estimated
Mon 02:16:00 AM 16.3817 37.8413 246° West  Level Estimated
Mon 02:17:00 AM 16.3297 37.7215 246° West  Level Estimated
Mon 02:18:00 AM 16.2775 37.6018 246° West  Level Estimated
Mon 02:19:00 AM 16.2253 37.4822 246° West  Level Estimated
Mon 02:20:00 AM 16.1731 37.3626 246° West  Level Estimated
Mon 02:21:00 AM 16.1207 37.2431 246° West  Level Estimated
Mon 02:22:00 AM 16.0683 37.1236 245° Southwest  Level Estimated
Mon 02:23:00 AM 16.0159 37.0042 245° Southwest  Level Estimated
Mon 02:24:00 AM 15.9633 36.8849 245° Southwest  Level Estimated
Mon 02:25:00 AM 15.9107 36.7656 245° Southwest  Level Estimated
Mon 02:26:00 AM 15.8581 36.6464 245° Southwest  Level Estimated
Mon 02:27:00 AM 15.8053 36.5272 245° Southwest  Level Estimated
Mon 02:28:00 AM 15.7526 36.4081 245° Southwest  Level Estimated
Mon 02:29:00 AM 15.6997 36.2891 245° Southwest  Level Estimated
Mon 02:30:00 AM 15.6468 36.1702 245° Southwest  Level Estimated
Mon 02:31:00 AM 15.5938 36.0513 245° Southwest  Level Estimated
Mon 02:32:00 AM 15.5407 35.9324 245° Southwest  Level Estimated
Mon 02:33:00 AM 15.4876 35.8136 245° Southwest  Level Estimated
Mon 02:34:00 AM 15.4344 35.6949 245° Southwest  Level Estimated
Mon 02:35:00 AM 15.3812 35.5762 245° Southwest  Level Estimated
Mon 02:36:00 AM 15.3279 35.4576 245° Southwest  Level Estimated
Mon 02:37:00 AM 15.2745 35.3391 245° Southwest  Level Estimated
Mon 02:38:00 AM 15.2211 35.2206 245° Southwest  Level Estimated
Mon 02:39:00 AM 15.1676 35.1022 245° Southwest  Level Estimated
Mon 02:40:00 AM 15.1141 34.9838 245° Southwest  Level Estimated
Mon 02:41:00 AM 15.0604 34.8656 245° Southwest  Level Estimated
Mon 02:42:00 AM 15.0068 34.7473 245° Southwest  Level Estimated
Mon 02:43:00 AM 14.9530 34.6291 245° Southwest  Level Estimated
Mon 02:44:00 AM 14.8992 34.5110 245° Southwest  Level Estimated
Mon 02:45:00 AM 14.8454 34.3929 245° Southwest  Level Estimated
Mon 02:46:00 AM 14.7915 34.2749 245° Southwest  Level Estimated
Mon 02:47:00 AM 14.7375 34.1570 245° Southwest  Level Estimated
Mon 02:48:00 AM 14.6834 34.0391 245° Southwest  Level Estimated
Mon 02:49:00 AM 14.6293 33.9213 245° Southwest  Level Estimated
Mon 02:50:00 AM 14.5752 33.8035 245° Southwest  Level Estimated
Mon 02:51:00 AM 14.5210 33.6858 245° Southwest  Level Estimated
Mon 02:52:00 AM 14.4667 33.5682 245° Southwest  Level Estimated
Mon 02:53:00 AM 14.4124 33.4506 245° Southwest  Level Estimated
Mon 02:54:00 AM 14.3580 33.3330 244° Southwest  Level Estimated
Mon 02:55:00 AM 14.3035 33.2156 244° Southwest  Level Estimated
Mon 02:56:00 AM 14.2490 33.0981 244° Southwest  Level Estimated
Mon 02:57:00 AM 14.1945 32.9808 244° Southwest  Level Estimated
Mon 02:58:00 AM 14.1398 32.8635 244° Southwest  Level Estimated
Mon 02:59:00 AM 14.0852 32.7462 244° Southwest  Level Estimated
Mon 03:00:00 AM 14.0304 32.6290 244° Southwest  Level Estimated
Mon 03:01:00 AM 13.9756 32.5119 244° Southwest  Level Estimated
Mon 03:02:00 AM 13.9208 32.3948 244° Southwest  Level Estimated
Mon 03:03:00 AM 13.8659 32.2777 244° Southwest  Level Estimated
Mon 03:04:00 AM 13.8109 32.1608 244° Southwest  Level Estimated
Mon 03:05:00 AM 13.7559 32.0439 244° Southwest  Level Estimated
Mon 03:06:00 AM 13.7009 31.9270 244° Southwest  Level Estimated
Mon 03:07:00 AM 13.6457 31.8102 244° Southwest  Level Estimated
Mon 03:08:00 AM 13.5906 31.6934 244° Southwest  Level Estimated
Mon 03:09:00 AM 13.5353 31.5767 244° Southwest  Level Estimated
Mon 03:10:00 AM 13.4800 31.4601 244° Southwest  Level Estimated
Mon 03:11:00 AM 13.4247 31.3435 244° Southwest  Level Estimated
Mon 03:12:00 AM 13.3693 31.2270 244° Southwest  Level Estimated
Mon 03:13:00 AM 13.3139 31.1105 244° Southwest  Level Estimated
Mon 03:14:00 AM 13.2584 30.9940 244° Southwest  Level Estimated
Mon 03:15:00 AM 13.2028 30.8777 244° Southwest  Level Estimated
Mon 03:16:00 AM 13.1472 30.7613 244° Southwest  Level Estimated
Mon 03:17:00 AM 13.0915 30.6451 244° Southwest  Level Estimated
Mon 03:18:00 AM 13.0358 30.5289 244° Southwest  Level Estimated
Mon 03:19:00 AM 12.9810 30.4147 244° Southwest  Level Estimated
Mon 03:20:00 AM 12.9262 30.3006 244° Southwest  Level Estimated
Mon 03:21:00 AM 12.8713 30.1866 244° Southwest  Level Estimated
Mon 03:22:00 AM 12.8164 30.0725 244° Southwest  Level Estimated
Mon 03:23:00 AM 12.7614 29.9586 244° Southwest  Level Estimated
Mon 03:24:00 AM 12.7064 29.8447 244° Southwest  Level Estimated
Mon 03:25:00 AM 12.6513 29.7309 244° Southwest  Level Estimated
Mon 03:26:00 AM 12.5961 29.6171 244° Southwest  Level Estimated
Mon 03:27:00 AM 12.5410 29.5033 244° Southwest  Level Estimated
Mon 03:28:00 AM 12.4857 29.3896 244° Southwest  Level Estimated
Mon 03:29:00 AM 12.4305 29.2759 244° Southwest  Level Estimated
Mon 03:30:00 AM 12.3751 29.1623 244° Southwest  Level Estimated
Mon 03:31:00 AM 12.3198 29.0488 243° Southwest  Level Estimated
Mon 03:32:00 AM 12.2643 28.9353 243° Southwest  Level Estimated
Mon 03:33:00 AM 12.2089 28.8218 243° Southwest  Level Estimated
Mon 03:34:00 AM 12.1534 28.7084 243° Southwest  Level Estimated
Mon 03:35:00 AM 12.0978 28.5950 243° Southwest  Level Estimated
Mon 03:36:00 AM 12.0422 28.4817 243° Southwest  Level Estimated
Mon 03:37:00 AM 11.9866 28.3685 243° Southwest  Level Estimated
Mon 03:38:00 AM 11.9309 28.2552 243° Southwest  Level Estimated
Mon 03:39:00 AM 11.8751 28.1420 243° Southwest  Level Estimated
Mon 03:40:00 AM 11.8194 28.0289 243° Southwest  Level Estimated
Mon 03:41:00 AM 11.7635 27.9158 243° Southwest  Level Estimated
Mon 03:42:00 AM 11.7077 27.8028 243° Southwest  Level Estimated
Mon 03:43:00 AM 11.6517 27.6898 243° Southwest  Level Estimated
Mon 03:44:00 AM 11.5958 27.5769 243° Southwest  Level Estimated
Mon 03:45:00 AM 11.5398 27.4639 243° Southwest  Level Estimated
Mon 03:46:00 AM 11.4837 27.3511 243° Southwest  Level Estimated
Mon 03:47:00 AM 11.4276 27.2383 243° Southwest  Level Estimated
Mon 03:48:00 AM 11.3715 27.1255 243° Southwest  Level Estimated
Mon 03:49:00 AM 11.3153 27.0128 243° Southwest  Level Estimated
Mon 03:50:00 AM 11.2591 26.9001 243° Southwest  Level Estimated
Mon 03:51:00 AM 11.2028 26.7875 243° Southwest  Level Estimated
Mon 03:52:00 AM 11.1465 26.6749 243° Southwest  Level Estimated
Mon 03:53:00 AM 11.0902 26.5623 243° Southwest  Level Estimated
Mon 03:54:00 AM 11.0338 26.4498 243° Southwest  Level Estimated
Mon 03:55:00 AM 10.9773 26.3374 243° Southwest  Level Estimated
Mon 03:56:00 AM 10.9209 26.2250 243° Southwest  Level Estimated
Mon 03:57:00 AM 10.8644 26.1126 243° Southwest  Level Estimated
Mon 03:58:00 AM 10.8078 26.0002 243° Southwest  Level Estimated
Mon 03:59:00 AM 10.7512 25.8880 243° Southwest  Level Estimated
Mon 04:00:00 AM 10.6946 25.7757 243° Southwest  Level Estimated
Mon 04:01:00 AM 10.6379 25.6635 243° Southwest  Level Estimated
Mon 04:02:00 AM 10.5812 25.5513 243° Southwest  Level Estimated
Mon 04:03:00 AM 10.5245 25.4392 243° Southwest  Level Estimated
Mon 04:04:00 AM 10.4677 25.3271 243° Southwest  Level Estimated
Mon 04:05:00 AM 10.4108 25.2151 243° Southwest  Level Estimated
Mon 04:06:00 AM 10.3540 25.1031 243° Southwest  Level Estimated
Mon 04:07:00 AM 10.2971 24.9911 243° Southwest  Level Estimated
Mon 04:08:00 AM 10.2401 24.8792 243° Southwest  Level Estimated
Mon 04:09:00 AM 10.1831 24.7673 243° Southwest  Level Estimated
Mon 04:10:00 AM 10.1261 24.6555 243° Southwest  Level Estimated
Mon 04:11:00 AM 10.0690 24.5437 243° Southwest  Level Estimated
Mon 04:12:00 AM 10.0119 24.4319 243° Southwest  Level Estimated
Mon 04:13:00 AM 9.9548 24.3202 243° Southwest  Level Estimated
Mon 04:14:00 AM 9.8976 24.2085 243° Southwest  Level Estimated
Mon 04:15:00 AM 9.8404 24.0969 243° Southwest  Level Estimated
Mon 04:16:00 AM 9.7831 23.9853 243° Southwest  Level Estimated
Mon 04:17:00 AM 9.7259 23.8737 242° Southwest  Level Estimated
Mon 04:18:00 AM 9.6685 23.7622 242° Southwest  Level Estimated
Mon 04:19:00 AM 9.6112 23.6507 242° Southwest  Level Estimated
Mon 04:20:00 AM 9.5538 23.5392 242° Southwest  Level Estimated
Mon 04:21:00 AM 9.4964 23.4278 242° Southwest  Level Estimated
Mon 04:22:00 AM 9.4389 23.3165 242° Southwest  Level Estimated
Mon 04:23:00 AM 9.3814 23.2051 242° Southwest  Level Estimated
Mon 04:24:00 AM 9.3239 23.0938 242° Southwest  Level Estimated
Mon 04:25:00 AM 9.2663 22.9825 242° Southwest  Level Estimated
Mon 04:26:00 AM 9.2087 22.8713 242° Southwest  Level Estimated
Mon 04:27:00 AM 9.1511 22.7601 242° Southwest  Level Estimated
Mon 04:28:00 AM 9.0934 22.6490 242° Southwest  Level Estimated
Mon 04:29:00 AM 9.0357 22.5378 242° Southwest  Level Estimated
Mon 04:30:00 AM 8.9780 22.4268 242° Southwest  Level Estimated
Mon 04:31:00 AM 8.9202 22.3157 242° Southwest  Level Estimated
Mon 04:32:00 AM 8.8624 22.2047 242° Southwest  Level Estimated
Mon 04:33:00 AM 8.8045 22.0937 242° Southwest  Level Estimated
Mon 04:34:00 AM 8.7467 21.9827 242° Southwest  Level Estimated
Mon 04:35:00 AM 8.6888 21.8718 242° Southwest  Level Estimated
Mon 04:36:00 AM 8.6308 21.7610 242° Southwest  Level Estimated
Mon 04:37:00 AM 8.5729 21.6501 242° Southwest  Level Estimated
Mon 04:38:00 AM 8.5149 21.5393 242° Southwest  Level Estimated
Mon 04:39:00 AM 8.4569 21.4285 242° Southwest  Level Estimated
Mon 04:40:00 AM 8.3988 21.3178 242° Southwest  Level Estimated
Mon 04:41:00 AM 8.3407 21.2071 242° Southwest  Level Estimated
Mon 04:42:00 AM 8.2826 21.0964 242° Southwest  Level Estimated
Mon 04:43:00 AM 8.2244 20.9858 242° Southwest  Level Estimated
Mon 04:44:00 AM 8.1663 20.8752 242° Southwest  Level Estimated
Mon 04:45:00 AM 8.1080 20.7646 242° Southwest  Level Estimated
Mon 04:46:00 AM 8.0498 20.6540 242° Southwest  Level Estimated
Mon 04:47:00 AM 7.9915 20.5435 242° Southwest  Level Estimated
Mon 04:48:00 AM 7.9332 20.4330 242° Southwest  Level Estimated
Mon 04:49:00 AM 7.8749 20.3226 242° Southwest  Level Estimated
Mon 04:50:00 AM 7.8165 20.2122 242° Southwest  Level Estimated
Mon 04:51:00 AM 7.7582 20.1018 242° Southwest  Level Estimated
Mon 04:52:00 AM 7.6997 19.9914 242° Southwest  Level Estimated
Mon 04:53:00 AM 7.6413 19.8811 242° Southwest  Level Estimated
Mon 04:54:00 AM 7.5828 19.7708 242° Southwest  Level Estimated
Mon 04:55:00 AM 7.5243 19.6605 242° Southwest  Level Estimated
Mon 04:56:00 AM 7.4658 19.5503 242° Southwest  Level Estimated
Mon 04:57:00 AM 7.4072 19.4401 242° Southwest  Level Estimated
Mon 04:58:00 AM 7.3487 19.3299 242° Southwest  Level Estimated
Mon 04:59:00 AM 7.2901 19.2197 242° Southwest  Level Estimated
Mon 05:00:00 AM 7.2314 19.1096 242° Southwest  Level Estimated
Mon 05:01:00 AM 7.1728 18.9995 242° Southwest  Level Estimated
Mon 05:02:00 AM 7.1141 18.8895 242° Southwest  Level Estimated
Mon 05:03:00 AM 7.0554 18.7794 242° Southwest  Level Estimated
Mon 05:04:00 AM 6.9966 18.6694 242° Southwest  Level Estimated
Mon 05:05:00 AM 6.9379 18.5594 242° Southwest  Level Estimated
Mon 05:06:00 AM 6.8791 18.4495 242° Southwest  Level Estimated
Mon 05:07:00 AM 6.8203 18.3395 242° Southwest  Level Estimated
Mon 05:08:00 AM 6.7614 18.2296 242° Southwest  Level Estimated
Mon 05:09:00 AM 6.7026 18.1198 242° Southwest  Level Estimated
Mon 05:10:00 AM 6.6437 18.0099 242° Southwest  Level Estimated
Mon 05:11:00 AM 6.5848 17.9001 242° Southwest  Level Estimated
Mon 05:12:00 AM 6.5258 17.7903 242° Southwest  Level Estimated
Mon 05:13:00 AM 6.4669 17.6805 242° Southwest  Level Estimated
Mon 05:14:00 AM 6.4079 17.5708 242° Southwest  Level Estimated
Mon 05:15:00 AM 6.3489 17.4611 242° Southwest  Level Estimated
Mon 05:16:00 AM 6.2899 17.3514 242° Southwest  Level Estimated
Mon 05:17:00 AM 6.2308 17.2417 242° Southwest  Level Estimated
Mon 05:18:00 AM 6.1717 17.1321 242° Southwest  Level Estimated
Mon 05:19:00 AM 6.1126 17.0225 242° Southwest  Level Estimated
Mon 05:20:00 AM 6.0535 16.9129 242° Southwest  Level Estimated
Mon 05:21:00 AM 5.9944 16.8033 242° Southwest  Level Estimated
Mon 05:22:00 AM 5.9352 16.6938 242° Southwest  Level Estimated
Mon 05:23:00 AM 5.8760 16.5842 241° Southwest  Level Estimated
Mon 05:24:00 AM 5.8168 16.4747 241° Southwest  Level Estimated
Mon 05:25:00 AM 5.7576 16.3652 241° Southwest  Level Estimated
Mon 05:26:00 AM 5.6983 16.2558 241° Southwest  Level Estimated
Mon 05:27:00 AM 5.6391 16.1464 241° Southwest  Level Estimated
Mon 05:28:00 AM 5.5798 16.0370 241° Southwest  Level Estimated
Mon 05:29:00 AM 5.5205 15.9276 241° Southwest  Level Estimated
Mon 05:30:00 AM 5.4611 15.8182 241° Southwest  Level Estimated
Mon 05:31:00 AM 5.4018 15.7089 241° Southwest  Level Estimated
Mon 05:32:00 AM 5.3424 15.5996 241° Southwest  Level Estimated
Mon 05:33:00 AM 5.2830 15.4902 241° Southwest  Level Estimated
Mon 05:34:00 AM 5.2236 15.3810 241° Southwest  Level Estimated
Mon 05:35:00 AM 5.1642 15.2717 241° Southwest  Level Estimated
Mon 05:36:00 AM 5.1047 15.1625 241° Southwest  Level Estimated
Mon 05:37:00 AM 5.0453 15.0533 241° Southwest  Level Estimated
Mon 05:38:00 AM 4.9858 14.9440 241° Southwest  Level Estimated
Mon 05:39:00 AM 4.9263 14.8349 241° Southwest  Level Estimated
Mon 05:40:00 AM 4.8668 14.7257 241° Southwest  Level Estimated
Mon 05:41:00 AM 4.8072 14.6166 241° Southwest  Level Estimated
Mon 05:42:00 AM 4.7477 14.5075 241° Southwest  Level Estimated
Mon 05:43:00 AM 4.6881 14.3983 241° Southwest  Level Estimated
Mon 05:44:00 AM 4.6285 14.2893 241° Southwest  Level Estimated
Mon 05:45:00 AM 4.5689 14.1802 241° Southwest  Level Estimated
Mon 05:46:00 AM 4.5093 14.0712 241° Southwest  Level Estimated
Mon 05:47:00 AM 4.4496 13.9621 241° Southwest  Level Estimated
Mon 05:48:00 AM 4.3900 13.8531 241° Southwest  Level Estimated
Mon 05:49:00 AM 4.3303 13.7441 241° Southwest  Level Estimated
Mon 05:50:00 AM 4.2706 13.6351 241° Southwest  Level Estimated
Mon 05:51:00 AM 4.2109 13.5262 241° Southwest  Level Estimated
Mon 05:52:00 AM 4.1512 13.4172 241° Southwest  Level Estimated
Mon 05:53:00 AM 4.0915 13.3083 241° Southwest  Level Estimated
Mon 05:54:00 AM 4.0318 13.1994 241° Southwest  Level Estimated
Mon 05:55:00 AM 3.9720 13.0905 241° Southwest  Level Estimated
Mon 05:56:00 AM 3.9122 12.9816 241° Southwest  Level Estimated
Mon 05:57:00 AM 3.8524 12.8728 241° Southwest  Level Estimated
Mon 05:58:00 AM 3.7926 12.7639 241° Southwest  Level Estimated
Mon 05:59:00 AM 3.7328 12.6551 241° Southwest  Level Estimated
Mon 06:00:00 AM 3.6730 12.5463 241° Southwest  Level Estimated
Mon 06:01:00 AM 3.6132 12.4375 241° Southwest  Level Estimated
Mon 06:02:00 AM 3.5533 12.3287 241° Southwest  Level Estimated
Mon 06:03:00 AM 3.4934 12.2199 241° Southwest  Level Estimated
Mon 06:04:00 AM 3.4336 12.1112 241° Southwest  Level Estimated
Mon 06:05:00 AM 3.3737 12.0024 241° Southwest  Level Estimated
Mon 06:06:00 AM 3.3138 11.8937 241° Southwest  Level Estimated
Mon 06:07:00 AM 3.2539 11.7850 241° Southwest  Level Estimated
Mon 06:08:00 AM 3.1939 11.6763 241° Southwest  Level Estimated
Mon 06:09:00 AM 3.1340 11.5676 241° Southwest  Level Estimated
Mon 06:10:00 AM 3.0740 11.4589 241° Southwest  Level Estimated
Mon 06:11:00 AM 3.0141 11.3502 241° Southwest  Level Estimated
Mon 06:12:00 AM 2.9541 11.2416 241° Southwest  Level Estimated
Mon 06:13:00 AM 2.8941 11.1329 241° Southwest  Level Estimated
Mon 06:14:00 AM 2.8341 11.0243 241° Southwest  Level Estimated
Mon 06:15:00 AM 2.7741 10.9157 241° Southwest  Level Estimated
Mon 06:16:00 AM 2.7141 10.8070 241° Southwest  Level Estimated
Mon 06:17:00 AM 2.6541 10.6984 241° Southwest  Level Estimated
Mon 06:18:00 AM 2.5941 10.5899 241° Southwest  Level Estimated
Mon 06:19:00 AM 2.5340 10.4813 241° Southwest  Level Estimated
Mon 06:20:00 AM 2.4740 10.3727 241° Southwest  Level Estimated
Mon 06:21:00 AM 2.4139 10.2641 241° Southwest  Level Estimated
Mon 06:22:00 AM 2.3539 10.1556 241° Southwest  Level Estimated
Mon 06:23:00 AM 2.2938 10.0471 241° Southwest  Level Estimated
Mon 06:24:00 AM 2.2337 9.9385 241° Southwest  Level Estimated
Mon 06:25:00 AM 2.1736 9.8300 241° Southwest  Level Estimated
Mon 06:26:00 AM 2.1135 9.7215 241° Southwest  Level Estimated
Mon 06:27:00 AM 2.0534 9.6130 241° Southwest  Level Estimated
Mon 06:28:00 AM 1.9933 9.5045 241° Southwest  Level Estimated
Mon 06:29:00 AM 1.9332 9.3960 241° Southwest  Level Estimated
Mon 06:30:00 AM 1.8730 9.2875 241° Southwest  Level Estimated
Mon 06:31:00 AM 1.8129 9.1790 241° Southwest  Level Estimated
Mon 06:32:00 AM 1.7527 9.0706 241° Southwest  Level Estimated
Mon 06:33:00 AM 1.6926 8.9621 241° Southwest  Level Estimated
Mon 06:34:00 AM 1.6324 8.8537 241° Southwest  Level Estimated
Mon 06:35:00 AM 1.5723 8.7452 241° Southwest  Level Estimated
Mon 06:36:00 AM 1.5121 8.6368 241° Southwest  Level Estimated
Mon 06:37:00 AM 1.4519 8.5283 241° Southwest  Level Estimated
Mon 06:38:00 AM 1.3917 8.4199 241° Southwest  Level Estimated
Mon 06:39:00 AM 1.3316 8.3115 241° Southwest  Level Estimated
Mon 06:40:00 AM 1.2714 8.2030 241° Southwest  Level Estimated
Mon 06:41:00 AM 1.2112 8.0946 241° Southwest  Level Estimated
Mon 06:42:00 AM 1.1510 7.9862 241° Southwest  Level Estimated
Mon 06:43:00 AM 1.0908 7.8778 241° Southwest  Level Estimated
Mon 06:44:00 AM 1.0306 7.7694 241° Southwest  Level Estimated
Mon 06:45:00 AM 0.9704 7.6610 241° Southwest  Level Estimated
Mon 06:46:00 AM 0.9102 7.5526 241° Southwest  Level Estimated
Mon 06:47:00 AM 0.8500 7.4443 241° Southwest  Level Estimated
Mon 06:48:00 AM 0.7897 7.3359 241° Southwest  Level Estimated
Mon 06:49:00 AM 0.7295 7.2275 241° Southwest  Level Estimated
Mon 06:50:00 AM 0.6693 7.1191 241° Southwest  Level Estimated
Mon 06:51:00 AM 0.6091 7.0107 241° Southwest  Level Estimated
Mon 06:52:00 AM 0.5488 6.9023 241° Southwest  Level Estimated
Mon 06:53:00 AM 0.4886 6.7940 241° Southwest  Level Estimated
Mon 06:54:00 AM 0.4284 6.6856 241° Southwest  Level Estimated
Mon 06:55:00 AM 0.3681 6.5772 241° Southwest  Level Estimated
Mon 06:56:00 AM 0.3079 6.4689 241° Southwest  Level Estimated
Mon 06:57:00 AM 0.2477 6.3605 241° Southwest  Level Estimated
Mon 06:58:00 AM 0.1874 6.2521 241° Southwest  Level Estimated
Mon 06:59:00 AM 0.1272 6.1438 241° Southwest  Level Estimated
Mon 07:00:00 AM 0.0670 6.0354 241° Southwest  Level Estimated
Mon 07:01:00 AM 0.0067 5.9271 241° Southwest  Level Estimated
Mon 07:02:00 AM -0.0535 5.8187 241° Southwest  Level Estimated
Mon 07:03:00 AM -0.1138 5.7103 241° Southwest  Level Estimated
Mon 07:04:00 AM -0.1740 5.6020 241° Southwest  Level Estimated
Mon 07:05:00 AM -0.2342 5.4936 241° Southwest  Level Estimated
Mon 07:06:00 AM -0.2945 5.3853 241° Southwest  Level Estimated
Mon 07:07:00 AM -0.3547 5.2769 241° Southwest  Level Estimated
Mon 07:08:00 AM -0.4149 5.1685 241° Southwest  Level Estimated
Mon 07:09:00 AM -0.4752 5.0601 241° Southwest  Level Estimated
Mon 07:10:00 AM -0.5354 4.9518 241° Southwest  Level Estimated
Mon 07:11:00 AM -0.5956 4.8434 241° Southwest  Level Estimated
Mon 07:12:00 AM -0.6559 4.7350 241° Southwest  Level Estimated
Mon 07:13:00 AM -0.7161 4.6266 241° Southwest  Level Estimated
Mon 07:14:00 AM -0.7763 4.5183 241° Southwest  Level Estimated
Mon 07:15:00 AM -0.8365 4.4099 241° Southwest  Level Estimated
Mon 07:16:00 AM -0.8967 4.3015 241° Southwest  Level Estimated
Mon 07:17:00 AM -0.9570 4.1931 241° Southwest  Level Estimated
Mon 07:18:00 AM -1.0172 4.0847 241° Southwest  Level Estimated
Mon 07:19:00 AM -1.0774 3.9763 241° Southwest  Level Estimated
Mon 07:20:00 AM -1.1376 3.8679 241° Southwest  Level Estimated
Mon 07:21:00 AM -1.1978 3.7595 241° Southwest  Level Estimated
Mon 07:22:00 AM -1.2580 3.6511 241° Southwest  Level Estimated
Mon 07:23:00 AM -1.3182 3.5427 241° Southwest  Level Estimated
Mon 07:24:00 AM -1.3783 3.4342 241° Southwest  Level Estimated
Mon 07:25:00 AM -1.4385 3.3258 241° Southwest  Level Estimated
Mon 07:26:00 AM -1.4987 3.2174 241° Southwest  Level Estimated
Mon 07:27:00 AM -1.5589 3.1089 241° Southwest  Level Estimated
Mon 07:28:00 AM -1.6190 3.0005 241° Southwest  Level Estimated
Mon 07:29:00 AM -1.6792 2.8920 241° Southwest  Level Estimated
Mon 07:30:00 AM -1.7393 2.7836 241° Southwest  Level Estimated
Mon 07:31:00 AM -1.7995 2.6751 241° Southwest  Level Estimated
Mon 07:32:00 AM -1.8596 2.5666 241° Southwest  Level Estimated
Mon 07:33:00 AM -1.9197 2.4582 241° Southwest  Level Estimated
Mon 07:34:00 AM -1.9799 2.3497 241° Southwest  Level Estimated
Mon 07:35:00 AM -2.0400 2.2412 241° Southwest  Level Estimated
Mon 07:36:00 AM -2.1001 2.1327 241° Southwest  Level Estimated
Mon 07:37:00 AM -2.1602 2.0242 241° Southwest  Level Estimated
Mon 07:38:00 AM -2.2203 1.9156 241° Southwest  Level Estimated
Mon 07:39:00 AM -2.2804 1.8071 241° Southwest  Level Estimated
Mon 07:40:00 AM -2.3405 1.6986 241° Southwest  Level Estimated
Mon 07:41:00 AM -2.4005 1.5900 241° Southwest  Level Estimated
Mon 07:42:00 AM -2.4606 1.4815 241° Southwest  Level Estimated
Mon 07:43:00 AM -2.5206 1.3729 241° Southwest  Level Estimated
Mon 07:44:00 AM -2.5807 1.2643 241° Southwest  Level Estimated
Mon 07:45:00 AM -2.6407 1.1557 241° Southwest  Level Estimated
Mon 07:46:00 AM -2.7007 1.0471 241° Southwest  Level Estimated
Mon 07:47:00 AM -2.7608 0.9385 241° Southwest  Level Estimated
Mon 07:48:00 AM -2.8208 0.8299 241° Southwest  Level Estimated
Mon 07:49:00 AM -2.8808 0.7213 241° Southwest  Level Estimated
Mon 07:50:00 AM -2.9408 0.6126 241° Southwest  Level Estimated
Mon 07:51:00 AM -3.0007 0.5040 241° Southwest  Level Estimated
Mon 07:52:00 AM -3.0607 0.3953 241° Southwest  Level Estimated
Mon 07:53:00 AM -3.1206 0.2866 241° Southwest  Level Estimated
Mon 07:54:00 AM -3.1806 0.1779 241° Southwest  Level Estimated
Mon 07:55:00 AM -3.2405 0.0692 241° Southwest  Level Estimated
Mon 07:56:00 AM -3.3004 -0.0395 241° Southwest  Level Estimated
Mon 07:57:00 AM -3.3603 -0.1482 241° Southwest  Level Estimated
Mon 07:58:00 AM -3.4202 -0.2570 241° Southwest  Level Estimated
Mon 07:59:00 AM -3.4801 -0.3657 241° Southwest  Level Estimated
Mon 08:00:00 AM -3.5400 -0.4745 241° Southwest  Level Estimated
Mon 08:01:00 AM -3.5998 -0.5833 241° Southwest  Level Estimated
Mon 08:02:00 AM -3.6597 -0.6921 241° Southwest  Level Estimated
Mon 08:03:00 AM -3.7195 -0.8009 241° Southwest  Level Estimated
Mon 08:04:00 AM -3.7793 -0.9097 241° Southwest  Level Estimated
Mon 08:05:00 AM -3.8391 -1.0186 241° Southwest  Level Estimated
Mon 08:06:00 AM -3.8989 -1.1274 241° Southwest  Level Estimated
Mon 08:07:00 AM -3.9587 -1.2363 241° Southwest  Level Estimated
Mon 08:08:00 AM -4.0185 -1.3452 241° Southwest  Level Estimated
Mon 08:09:00 AM -4.0782 -1.4541 241° Southwest  Level Estimated
Mon 08:10:00 AM -4.1379 -1.5630 241° Southwest  Level Estimated
Mon 08:11:00 AM -4.1977 -1.6719 241° Southwest  Level Estimated
Mon 08:12:00 AM -4.2574 -1.7809 241° Southwest  Level Estimated
Mon 08:13:00 AM -4.3170 -1.8899 241° Southwest  Level Estimated
Mon 08:14:00 AM -4.3767 -1.9989 241° Southwest  Level Estimated
Mon 08:15:00 AM -4.4364 -2.1079 241° Southwest  Level Estimated
Mon 08:16:00 AM -4.4960 -2.2169 241° Southwest  Level Estimated
Mon 08:17:00 AM -4.5556 -2.3259 241° Southwest  Level Estimated
Mon 08:18:00 AM -4.6153 -2.4350 241° Southwest  Level Estimated
Mon 08:19:00 AM -4.6748 -2.5441 241° Southwest  Level Estimated
Mon 08:20:00 AM -4.7344 -2.6532 241° Southwest  Level Estimated
Mon 08:21:00 AM -4.7940 -2.7623 241° Southwest  Level Estimated
Mon 08:22:00 AM -4.8535 -2.8714 241° Southwest  Level Estimated
Mon 08:23:00 AM -4.9130 -2.9806 241° Southwest  Level Estimated
Mon 08:24:00 AM -4.9725 -3.0897 241° Southwest  Level Estimated
Mon 08:25:00 AM -5.0320 -3.1989 241° Southwest  Level Estimated
Mon 08:26:00 AM -5.0915 -3.3081 241° Southwest  Level Estimated
Mon 08:27:00 AM -5.1509 -3.4174 241° Southwest  Level Estimated
Mon 08:28:00 AM -5.2104 -3.5266 241° Southwest  Level Estimated
Mon 08:29:00 AM -5.2698 -3.6359 241° Southwest  Level Estimated
Mon 08:30:00 AM -5.3292 -3.7452 241° Southwest  Level Estimated
Mon 08:31:00 AM -5.3885 -3.8545 241° Southwest  Level Estimated
Mon 08:32:00 AM -5.4479 -3.9639 241° Southwest  Level Estimated
Mon 08:33:00 AM -5.5072 -4.0732 241° Southwest  Level Estimated
Mon 08:34:00 AM -5.5665 -4.1826 241° Southwest  Level Estimated
Mon 08:35:00 AM -5.6258 -4.2920 241° Southwest  Level Estimated
Mon 08:36:00 AM -5.6851 -4.4014 241° Southwest  Level Estimated
Mon 08:37:00 AM -5.7443 -4.5109 241° Southwest  Level Estimated
Mon 08:38:00 AM -5.8036 -4.6203 241° Southwest  Level Estimated
Mon 08:39:00 AM -5.8628 -4.7298 241° Southwest  Level Estimated
Mon 08:40:00 AM -5.9220 -4.8394 241° Southwest  Level Estimated
Mon 08:41:00 AM -5.9812 -4.9489 241° Southwest  Level Estimated
Mon 08:42:00 AM -6.0403 -5.0585 241° Southwest  Level Estimated
Mon 08:43:00 AM -6.0994 -5.1680 242° Southwest  Level Estimated
Mon 08:44:00 AM -6.1585 -5.2776 242° Southwest  Level Estimated
Mon 08:45:00 AM -6.2176 -5.3873 242° Southwest  Level Estimated
Mon 08:46:00 AM -6.2767 -5.4970 242° Southwest  Level Estimated
Mon 08:47:00 AM -6.3357 -5.6066 242° Southwest  Level Estimated
Mon 08:48:00 AM -6.3947 -5.7164 242° Southwest  Level Estimated
Mon 08:49:00 AM -6.4537 -5.8261 242° Southwest  Level Estimated
Mon 08:50:00 AM -6.5127 -5.9359 242° Southwest  Level Estimated
Mon 08:51:00 AM -6.5716 -6.0456 242° Southwest  Level Estimated
Mon 08:52:00 AM -6.6305 -6.1554 242° Southwest  Level Estimated
Mon 08:53:00 AM -6.6894 -6.2653 242° Southwest  Level Estimated
Mon 08:54:00 AM -6.7483 -6.3752 242° Southwest  Level Estimated
Mon 08:55:00 AM -6.8071 -6.4851 242° Southwest  Level Estimated
Mon 08:56:00 AM -6.8660 -6.5950 242° Southwest  Level Estimated
Mon 08:57:00 AM -6.9248 -6.7049 242° Southwest  Level Estimated
Mon 08:58:00 AM -6.9835 -6.8149 242° Southwest  Level Estimated
Mon 08:59:00 AM -7.0423 -6.9249 242° Southwest  Level Estimated
Mon 09:00:00 AM -7.1010 -7.0349 242° Southwest  Level Estimated
Mon 09:01:00 AM -7.1597 -7.1450 242° Southwest  Level Estimated
Mon 09:02:00 AM -7.2184 -7.2551 242° Southwest  Level Estimated
Mon 09:03:00 AM -7.2770 -7.3652 242° Southwest  Level Estimated
Mon 09:04:00 AM -7.3356 -7.4753 242° Southwest  Level Estimated
Mon 09:05:00 AM -7.3942 -7.5855 242° Southwest  Level Estimated
Mon 09:06:00 AM -7.4528 -7.6957 242° Southwest  Level Estimated
Mon 09:07:00 AM -7.5113 -7.8059 242° Southwest  Level Estimated
Mon 09:08:00 AM -7.5698 -7.9162 242° Southwest  Level Estimated
Mon 09:09:00 AM -7.6283 -8.0265 242° Southwest  Level Estimated
Mon 09:10:00 AM -7.6867 -8.1368 242° Southwest  Level Estimated
Mon 09:11:00 AM -7.7452 -8.2472 242° Southwest  Level Estimated
Mon 09:12:00 AM -7.8035 -8.3575 242° Southwest  Level Estimated
Mon 09:13:00 AM -7.8619 -8.4679 242° Southwest  Level Estimated
Mon 09:14:00 AM -7.9202 -8.5784 242° Southwest  Level Estimated
Mon 09:15:00 AM -7.9785 -8.6889 242° Southwest  Level Estimated
Mon 09:16:00 AM -8.0368 -8.7994 242° Southwest  Level Estimated
Mon 09:17:00 AM -8.0951 -8.9099 242° Southwest  Level Estimated
Mon 09:18:00 AM -8.1533 -9.0205 242° Southwest  Level Estimated
Mon 09:19:00 AM -8.2115 -9.1311 242° Southwest  Level Estimated
Mon 09:20:00 AM -8.2697 -9.2417 242° Southwest  Level Estimated
Mon 09:21:00 AM -8.3278 -9.3524 242° Southwest  Level Estimated
Mon 09:22:00 AM -8.3859 -9.4631 242° Southwest  Level Estimated
Mon 09:23:00 AM -8.4439 -9.5738 242° Southwest  Level Estimated
Mon 09:24:00 AM -8.5020 -9.6846 242° Southwest  Level Estimated
Mon 09:25:00 AM -8.5600 -9.7954 242° Southwest  Level Estimated
Mon 09:26:00 AM -8.6180 -9.9062 242° Southwest  Level Estimated
Mon 09:27:00 AM -8.6759 -10.0171 242° Southwest  Level Estimated
Mon 09:28:00 AM -8.7338 -10.1280 242° Southwest  Level Estimated
Mon 09:29:00 AM -8.7917 -10.2389 242° Southwest  Level Estimated
Mon 09:30:00 AM -8.8495 -10.3499 242° Southwest  Level Estimated
Mon 09:31:00 AM -8.9073 -10.4609 242° Southwest  Level Estimated
Mon 09:32:00 AM -8.9651 -10.5720 242° Southwest  Level Estimated
Mon 09:33:00 AM -9.0229 -10.6831 242° Southwest  Level Estimated
Mon 09:34:00 AM -9.0806 -10.7942 242° Southwest  Level Estimated
Mon 09:35:00 AM -9.1382 -10.9053 242° Southwest  Level Estimated
Mon 09:36:00 AM -9.1959 -11.0165 242° Southwest  Level Estimated
Mon 09:37:00 AM -9.2535 -11.1277 242° Southwest  Level Estimated
Mon 09:38:00 AM -9.3111 -11.2390 242° Southwest  Level Estimated
Mon 09:39:00 AM -9.3686 -11.3503 242° Southwest  Level Estimated
Mon 09:40:00 AM -9.4261 -11.4616 242° Southwest  Level Estimated
Mon 09:41:00 AM -9.4836 -11.5730 242° Southwest  Level Estimated
Mon 09:42:00 AM -9.5410 -11.6844 242° Southwest  Level Estimated
Mon 09:43:00 AM -9.5984 -11.7958 242° Southwest  Level Estimated
Mon 09:44:00 AM -9.6558 -11.9073 242° Southwest  Level Estimated
Mon 09:45:00 AM -9.7131 -12.0188 242° Southwest  Level Estimated
Mon 09:46:00 AM -9.7704 -12.1304 242° Southwest  Level Estimated
Mon 09:47:00 AM -9.8277 -12.2420 242° Southwest  Level Estimated
Mon 09:48:00 AM -9.8849 -12.3536 243° Southwest  Level Estimated
Mon 09:49:00 AM -9.9421 -12.4653 243° Southwest  Level Estimated
Mon 09:50:00 AM -9.9992 -12.5770 243° Southwest  Level Estimated
Mon 09:51:00 AM -10.0563 -12.6887 243° Southwest  Level Estimated
Mon 09:52:00 AM -10.1134 -12.8005 243° Southwest  Level Estimated
Mon 09:53:00 AM -10.1704 -12.9123 243° Southwest  Level Estimated
Mon 09:54:00 AM -10.2274 -13.0242 243° Southwest  Level Estimated
Mon 09:55:00 AM -10.2844 -13.1361 243° Southwest  Level Estimated
Mon 09:56:00 AM -10.3413 -13.2481 243° Southwest  Level Estimated
Mon 09:57:00 AM -10.3982 -13.3601 243° Southwest  Level Estimated
Mon 09:58:00 AM -10.4550 -13.4721 243° Southwest  Level Estimated
Mon 09:59:00 AM -10.5118 -13.5842 243° Southwest  Level Estimated
Mon 10:00:00 AM -10.5686 -13.6963 243° Southwest  Level Estimated
Mon 10:01:00 AM -10.6253 -13.8084 243° Southwest  Level Estimated
Mon 10:02:00 AM -10.6820 -13.9206 243° Southwest  Level Estimated
Mon 10:03:00 AM -10.7386 -14.0329 243° Southwest  Level Estimated
Mon 10:04:00 AM -10.7952 -14.1452 243° Southwest  Level Estimated
Mon 10:05:00 AM -10.8518 -14.2575 243° Southwest  Level Estimated
Mon 10:06:00 AM -10.9083 -14.3699 243° Southwest  Level Estimated
Mon 10:07:00 AM -10.9648 -14.4823 243° Southwest  Level Estimated
Mon 10:08:00 AM -11.0212 -14.5947 243° Southwest  Level Estimated
Mon 10:09:00 AM -11.0776 -14.7072 243° Southwest  Level Estimated
Mon 10:10:00 AM -11.1340 -14.8197 243° Southwest  Level Estimated
Mon 10:11:00 AM -11.1903 -14.9323 243° Southwest  Level Estimated
Mon 10:12:00 AM -11.2466 -15.0450 243° Southwest  Level Estimated
Mon 10:13:00 AM -11.3028 -15.1576 243° Southwest  Level Estimated
Mon 10:14:00 AM -11.3590 -15.2703 243° Southwest  Level Estimated
Mon 10:15:00 AM -11.4152 -15.3831 243° Southwest  Level Estimated
Mon 10:16:00 AM -11.4713 -15.4959 243° Southwest  Level Estimated
Mon 10:17:00 AM -11.5273 -15.6088 243° Southwest  Level Estimated
Mon 10:18:00 AM -11.5833 -15.7216 243° Southwest  Level Estimated
Mon 10:19:00 AM -11.6393 -15.8346 243° Southwest  Level Estimated
Mon 10:20:00 AM -11.6952 -15.9476 243° Southwest  Level Estimated
Mon 10:21:00 AM -11.7511 -16.0606 243° Southwest  Level Estimated
Mon 10:22:00 AM -11.8070 -16.1737 243° Southwest  Level Estimated
Mon 10:23:00 AM -11.8628 -16.2868 243° Southwest  Level Estimated
Mon 10:24:00 AM -11.9185 -16.4000 243° Southwest  Level Estimated
Mon 10:25:00 AM -11.9742 -16.5132 243° Southwest  Level Estimated
Mon 10:26:00 AM -12.0299 -16.6264 243° Southwest  Level Estimated
Mon 10:27:00 AM -12.0855 -16.7397 243° Southwest  Level Estimated
Mon 10:28:00 AM -12.1410 -16.8531 243° Southwest  Level Estimated
Mon 10:29:00 AM -12.1966 -16.9665 243° Southwest  Level Estimated
Mon 10:30:00 AM -12.2520 -17.0799 243° Southwest  Level Estimated
Mon 10:31:00 AM -12.3075 -17.1934 243° Southwest  Level Estimated
Mon 10:32:00 AM -12.3628 -17.3070 243° Southwest  Level Estimated
Mon 10:33:00 AM -12.4182 -17.4206 243° Southwest  Level Estimated
Mon 10:34:00 AM -12.4735 -17.5342 244° Southwest  Level Estimated
Mon 10:35:00 AM -12.5287 -17.6479 244° Southwest  Level Estimated
Mon 10:36:00 AM -12.5839 -17.7616 244° Southwest  Level Estimated
Mon 10:37:00 AM -12.6390 -17.8754 244° Southwest  Level Estimated
Mon 10:38:00 AM -12.6941 -17.9893 244° Southwest  Level Estimated
Mon 10:39:00 AM -12.7492 -18.1032 244° Southwest  Level Estimated
Mon 10:40:00 AM -12.8042 -18.2171 244° Southwest  Level Estimated
Mon 10:41:00 AM -12.8591 -18.3311 244° Southwest  Level Estimated
Mon 10:42:00 AM -12.9140 -18.4451 244° Southwest  Level Estimated
Mon 10:43:00 AM -12.9689 -18.5592 244° Southwest  Level Estimated
Mon 10:44:00 AM -13.0237 -18.6733 244° Southwest  Level Estimated
Mon 10:45:00 AM -13.0784 -18.7875 244° Southwest  Level Estimated
Mon 10:46:00 AM -13.1331 -18.9018 244° Southwest  Level Estimated
Mon 10:47:00 AM -13.1878 -19.0161 244° Southwest  Level Estimated
Mon 10:48:00 AM -13.2424 -19.1304 244° Southwest  Level Estimated
Mon 10:49:00 AM -13.2969 -19.2448 244° Southwest  Level Estimated
Mon 10:50:00 AM -13.3514 -19.3592 244° Southwest  Level Estimated
Mon 10:51:00 AM -13.4059 -19.4737 244° Southwest  Level Estimated
Mon 10:52:00 AM -13.4603 -19.5883 244° Southwest  Level Estimated
Mon 10:53:00 AM -13.5146 -19.7029 244° Southwest  Level Estimated
Mon 10:54:00 AM -13.5689 -19.8175 244° Southwest  Level Estimated
Mon 10:55:00 AM -13.6231 -19.9322 244° Southwest  Level Estimated
Mon 10:56:00 AM -13.6773 -20.0470 244° Southwest  Level Estimated
Mon 10:57:00 AM -13.7315 -20.1618 244° Southwest  Level Estimated
Mon 10:58:00 AM -13.7855 -20.2766 244° Southwest  Level Estimated
Mon 10:59:00 AM -13.8396 -20.3916 244° Southwest  Level Estimated
Mon 11:00:00 AM -13.8935 -20.5065 244° Southwest  Level Estimated
Mon 11:01:00 AM -13.9475 -20.6215 244° Southwest  Level Estimated
Mon 11:02:00 AM -14.0013 -20.7366 244° Southwest  Level Estimated
Mon 11:03:00 AM -14.0551 -20.8517 244° Southwest  Level Estimated
Mon 11:04:00 AM -14.1089 -20.9669 244° Southwest  Level Estimated
Mon 11:05:00 AM -14.1626 -21.0822 244° Southwest  Level Estimated
Mon 11:06:00 AM -14.2162 -21.1975 244° Southwest  Level Estimated
Mon 11:07:00 AM -14.2698 -21.3128 244° Southwest  Level Estimated
Mon 11:08:00 AM -14.3234 -21.4282 244° Southwest  Level Estimated
Mon 11:09:00 AM -14.3769 -21.5437 244° Southwest  Level Estimated
Mon 11:10:00 AM -14.4303 -21.6592 244° Southwest  Level Estimated
Mon 11:11:00 AM -14.4836 -21.7747 244° Southwest  Level Estimated
Mon 11:12:00 AM -14.5370 -21.8904 245° Southwest  Level Estimated
Mon 11:13:00 AM -14.5902 -22.0060 245° Southwest  Level Estimated
Mon 11:14:00 AM -14.6434 -22.1218 245° Southwest  Level Estimated
Mon 11:15:00 AM -14.6965 -22.2376 245° Southwest  Level Estimated
Mon 11:16:00 AM -14.7496 -22.3534 245° Southwest  Level Estimated
Mon 11:17:00 AM -14.8027 -22.4693 245° Southwest  Level Estimated
Mon 11:18:00 AM -14.8556 -22.5853 245° Southwest  Level Estimated
Mon 11:19:00 AM -14.9085 -22.7013 245° Southwest  Level Estimated
Mon 11:20:00 AM -14.9614 -22.8174 245° Southwest  Level Estimated
Mon 11:21:00 AM -15.0142 -22.9335 245° Southwest  Level Estimated
Mon 11:22:00 AM -15.0669 -23.0497 245° Southwest  Level Estimated
Mon 11:23:00 AM -15.1196 -23.1659 245° Southwest  Level Estimated
Mon 11:24:00 AM -15.1722 -23.2822 245° Southwest  Level Estimated
Mon 11:25:00 AM -15.2247 -23.3986 245° Southwest  Level Estimated
Mon 11:26:00 AM -15.2772 -23.5150 245° Southwest  Level Estimated
Mon 11:27:00 AM -15.3296 -23.6315 245° Southwest  Level Estimated
Mon 11:28:00 AM -15.3820 -23.7480 245° Southwest  Level Estimated
Mon 11:29:00 AM -15.4343 -23.8646 245° Southwest  Level Estimated
Mon 11:30:00 AM -15.4866 -23.9813 245° Southwest  Level Estimated
Mon 11:31:00 AM -15.5388 -24.0980 245° Southwest  Level Estimated
Mon 11:32:00 AM -15.5909 -24.2147 245° Southwest  Level Estimated
Mon 11:33:00 AM -15.6430 -24.3316 245° Southwest  Level Estimated
Mon 11:34:00 AM -15.6950 -24.4485 245° Southwest  Level Estimated
Mon 11:35:00 AM -15.7469 -24.5654 245° Southwest  Level Estimated
Mon 11:36:00 AM -15.7988 -24.6824 245° Southwest  Level Estimated
Mon 11:37:00 AM -15.8506 -24.7995 245° Southwest  Level Estimated
Mon 11:38:00 AM -15.9024 -24.9166 245° Southwest  Level Estimated
Mon 11:39:00 AM -15.9541 -25.0338 245° Southwest  Level Estimated
Mon 11:40:00 AM -16.0057 -25.1511 245° Southwest  Level Estimated
Mon 11:41:00 AM -16.0573 -25.2684 245° Southwest  Level Estimated
Mon 11:42:00 AM -16.1088 -25.3857 245° Southwest  Level Estimated
Mon 11:43:00 AM -16.1602 -25.5032 245° Southwest  Level Estimated
Mon 11:44:00 AM -16.2116 -25.6207 246° West  Level Estimated
Mon 11:45:00 AM -16.2629 -25.7382 246° West  Level Estimated
Mon 11:46:00 AM -16.3141 -25.8558 246° West  Level Estimated
Mon 11:47:00 AM -16.3653 -25.9735 246° West  Level Estimated
Mon 11:48:00 AM -16.4164 -26.0912 246° West  Level Estimated
Mon 11:49:00 AM -16.4675 -26.2090 246° West  Level Estimated
Mon 11:50:00 AM -16.5184 -26.3269 246° West  Level Estimated
Mon 11:51:00 AM -16.5694 -26.4448 246° West  Level Estimated
Mon 11:52:00 AM -16.6202 -26.5628 246° West  Level Estimated
Mon 11:53:00 AM -16.6710 -26.6809 246° West  Level Estimated
Mon 11:54:00 AM -16.7217 -26.7990 246° West  Level Estimated
Mon 11:55:00 AM -16.7724 -26.9172 246° West  Level Estimated
Mon 11:56:00 AM -16.8230 -27.0354 246° West  Level Estimated
Mon 11:57:00 AM -16.8735 -27.1537 246° West  Level Estimated
Mon 11:58:00 AM -16.9239 -27.2721 246° West  Level Estimated
Mon 11:59:00 AM -16.9743 -27.3905 246° West  Level Estimated
Mon 12:00:00 PM -17.0246 -27.5090 246° West  Level Estimated
Mon 12:01:00 PM -17.0748 -27.6275 246° West  Level Estimated
Mon 12:02:00 PM -17.1250 -27.7461 246° West  Level Estimated
Mon 12:03:00 PM -17.1751 -27.8648 246° West  Level Estimated
Mon 12:04:00 PM -17.2251 -27.9836 246° West  Level Estimated
Mon 12:05:00 PM -17.2751 -28.1024 246° West  Level Estimated
Mon 12:06:00 PM -17.3250 -28.2213 246° West  Level Estimated
Mon 12:07:00 PM -17.3748 -28.3402 246° West  Level Estimated
Mon 12:08:00 PM -17.4246 -28.4592 246° West  Level Estimated
Mon 12:09:00 PM -17.4742 -28.5783 246° West  Level Estimated
Mon 12:10:00 PM -17.5238 -28.6974 246° West  Level Estimated
Mon 12:11:00 PM -17.5734 -28.8166 246° West  Level Estimated
Mon 12:12:00 PM -17.6229 -28.9359 246° West  Level Estimated
Mon 12:13:00 PM -17.6723 -29.0552 247° West  Level Estimated
Mon 12:14:00 PM -17.7216 -29.1746 247° West  Level Estimated
Mon 12:15:00 PM -17.7708 -29.2941 247° West  Level Estimated
Mon 12:16:00 PM -17.8200 -29.4136 247° West  Level Estimated
Mon 12:17:00 PM -17.8691 -29.5332 247° West  Level Estimated
Mon 12:18:00 PM -17.9182 -29.6528 247° West  Level Estimated
Mon 12:19:00 PM -17.9671 -29.7726 247° West  Level Estimated
Mon 12:20:00 PM -18.0160 -29.8923 247° West  Level Estimated
Mon 12:21:00 PM -18.0648 -30.0122 247° West  Level Estimated
Mon 12:22:00 PM -18.1136 -30.1321 247° West  Level Estimated
Mon 12:23:00 PM -18.1623 -30.2521 247° West  Level Estimated
Mon 12:24:00 PM -18.2108 -30.3722 247° West  Level Estimated
Mon 12:25:00 PM -18.2594 -30.4923 247° West  Level Estimated
Mon 12:26:00 PM -18.3078 -30.6125 247° West  Level Estimated
Mon 12:27:00 PM -18.3562 -30.7328 247° West  Level Estimated
Mon 12:28:00 PM -18.4045 -30.8531 247° West  Level Estimated
Mon 12:29:00 PM -18.4527 -30.9735 247° West  Level Estimated
Mon 12:30:00 PM -18.5008 -31.0939 247° West  Level Estimated
Mon 12:31:00 PM -18.5489 -31.2145 247° West  Level Estimated
Mon 12:32:00 PM -18.5969 -31.3351 247° West  Level Estimated
Mon 12:33:00 PM -18.6448 -31.4557 247° West  Level Estimated
Mon 12:34:00 PM -18.6926 -31.5765 247° West  Level Estimated
Mon 12:35:00 PM -18.7404 -31.6973 247° West  Level Estimated
Mon 12:36:00 PM -18.7880 -31.8181 247° West  Level Estimated
Mon 12:37:00 PM -18.8356 -31.9391 247° West  Level Estimated
Mon 12:38:00 PM -18.8832 -32.0601 247° West  Level Estimated
Mon 12:39:00 PM -18.9306 -32.1812 247° West  Level Estimated
Mon 12:40:00 PM -18.9780 -32.3023 248° West  Level Estimated
Mon 12:41:00 PM -19.0253 -32.4235 248° West  Level Estimated
Mon 12:41:52 PM -19.6470 -37.1740 248° West 452 520 38,000  Level FlightAware ADS-B
Mon 12:42:00 PM -19.0725 -32.5448 248° West  Level Estimated
Mon 12:42:32 PM -19.6760 -37.3230 258° West 455 524 38,000  Level FlightAware ADS-B
Mon 12:43:12 PM -19.6920 -37.3960 257° West 455 524 38,000  Level FlightAware ADS-B
Mon 12:43:52 PM -19.7080 -37.4700 257° West 455 524 38,000  Level FlightAware ADS-B
Mon 12:44:32 PM -19.7350 -37.6120 259° West 450 518 38,000  Level FlightAware ADS-B
Mon 12:45:22 PM -19.7580 -37.7270 258° West 450 518 38,000  Level FlightAware ADS-B
Mon 12:45:57 PM -19.7720 -37.8010 259° West 450 518 38,000  Level FlightAware ADS-B
Mon 12:46:47 PM -19.7950 -37.9130 258° West 450 518 38,000  Level FlightAware ADS-B
Mon 12:47:27 PM -19.8110 -37.9970 259° West 449 517 38,000  Level FlightAware ADS-B
Mon 12:48:17 PM -19.8310 -38.0940 258° West 447 514 38,000  Level FlightAware ADS-B
Mon 12:49:07 PM -19.8490 -38.1850 258° West 447 514 38,000  Level FlightAware ADS-B
Mon 12:49:37 PM -19.8760 -38.3250 258° West 448 516 38,000  Level FlightAware ADS-B
Mon 12:50:27 PM -19.8990 -38.4400 258° West 447 514 38,000  Level FlightAware ADS-B
Mon 12:51:12 PM -19.9160 -38.5270 258° West 447 514 38,000  Level FlightAware ADS-B
Mon 12:51:47 PM -19.9290 -38.5960 259° West 447 514 38,000  Level FlightAware ADS-B
Mon 12:52:42 PM -19.9540 -38.7220 258° West 446 513 38,000  Level FlightAware ADS-B
Mon 12:53:32 PM -19.9750 -38.8310 258° West 444 511 38,000  Level FlightAware ADS-B
Mon 12:54:12 PM -19.9910 -38.9160 259° West 444 511 38,000  Level FlightAware ADS-B
Mon 12:54:47 PM -20.0070 -38.9980 258° West 445 512 38,000  Level FlightAware ADS-B
Mon 12:55:37 PM -20.0280 -39.1040 258° West 446 513 38,000  Level FlightAware ADS-B
Mon 12:56:17 PM -20.0440 -39.1890 259° West 444 511 38,000  Level FlightAware ADS-B
Mon 12:56:52 PM -20.0570 -39.2550 258° West 444 511 38,000  Level FlightAware ADS-B
Mon 12:57:42 PM -20.0740 -39.3480 259° West 444 511 38,000  Level FlightAware ADS-B
Mon 12:58:22 PM -20.0920 -39.4430 259° West 444 511 38,000  Level FlightAware ADS-B
Mon 12:58:57 PM -20.1050 -39.5120 259° West 444 511 38,000  Level FlightAware ADS-B
Mon 12:59:47 PM -20.1270 -39.6270 258° West 444 511 38,000  Level FlightAware ADS-B
Mon 01:00:32 PM -20.1440 -39.7190 259° West 446 513 38,000  Level FlightAware ADS-B
Mon 01:01:07 PM -20.1560 -39.7780 258° West 447 514 38,000  Level FlightAware ADS-B
Mon 01:02:07 PM -20.1770 -39.8900 259° West 446 513 38,000  Level FlightAware ADS-B
Mon 01:03:02 PM -20.2050 -40.0400 259° West 442 509 38,000  Level FlightAware ADS-B
Mon 01:03:47 PM -20.2200 -40.1240 259° West 441 507 38,000  Level FlightAware ADS-B
Mon 01:04:22 PM -20.2300 -40.1760 258° West 442 509 38,000  Level FlightAware ADS-B
Mon 01:05:12 PM -20.2720 -40.2930 249° West 452 520 38,000  Level FlightAware ADS-B
Mon 01:05:52 PM -20.3460 -40.3510 216° Southwest 460 529 38,000  Level FlightAware ADS-B
Mon 01:06:27 PM -20.3980 -40.3870 213° Southwest 459 528 38,000  Level FlightAware ADS-B
Mon 01:07:22 PM -20.4860 -40.4480 213° Southwest 459 528 38,000  Level FlightAware ADS-B
Mon 01:08:12 PM -20.6040 -40.5310 213° Southwest 461 531 38,000  Level FlightAware ADS-B
Mon 01:08:52 PM -20.6900 -40.5920 214° Southwest 461 531 38,000  Level FlightAware ADS-B
Mon 01:09:27 PM -20.7520 -40.6360 214° Southwest 461 531 38,000  Level FlightAware ADS-B
Mon 01:10:17 PM -20.8400 -40.6980 213° Southwest 462 532 38,000  Level FlightAware ADS-B
Mon 01:10:57 PM -20.9210 -40.7550 213° Southwest 465 535 38,000  Level FlightAware ADS-B
Mon 01:11:32 PM -20.9870 -40.8010 213° Southwest 465 535 38,000  Level FlightAware ADS-B
Mon 01:12:22 PM -21.0710 -40.8610 214° Southwest 464 534 38,000  Level FlightAware ADS-B
Mon 01:12:57 PM -21.1330 -40.9050 214° Southwest 463 533 38,000  Level FlightAware ADS-B
Mon 01:13:47 PM -21.2820 -41.0110 214° Southwest 463 533 38,000  Level FlightAware ADS-B
Mon 01:14:27 PM -21.3540 -41.0620 213° Southwest 462 532 38,000  Level FlightAware ADS-B
Mon 01:15:12 PM -21.4310 -41.1160 213° Southwest 462 532 38,000  Level FlightAware ADS-B
Mon 01:15:47 PM -21.4930 -41.1610 214° Southwest 461 531 38,000  Level FlightAware ADS-B
Mon 01:16:37 PM -21.5860 -41.2270 213° Southwest 462 532 38,000  Level FlightAware ADS-B
Mon 01:17:17 PM -21.6580 -41.2780 213° Southwest 463 533 38,000  Level FlightAware ADS-B
Mon 01:17:57 PM -21.7220 -41.3380 221° Southwest 449 517 38,000  Level FlightAware ADS-B
Mon 01:18:42 PM -21.7850 -41.4140 228° Southwest 448 516 38,000  Level FlightAware ADS-B
Mon 01:19:22 PM -21.8390 -41.4810 229° Southwest 448 516 38,000  Level FlightAware ADS-B
Mon 01:20:02 PM -21.8940 -41.5500 229° Southwest 448 516 38,000  Level FlightAware ADS-B
Mon 01:20:47 PM -21.9530 -41.6220 229° Southwest 447 514 38,000  Level FlightAware ADS-B
Mon 01:21:27 PM -22.0090 -41.6910 229° Southwest 446 513 38,000  Level FlightAware ADS-B
Mon 01:22:12 PM -22.0690 -41.7660 229° Southwest 444 511 38,000  Level FlightAware ADS-B
Mon 01:22:52 PM -22.1240 -41.8340 229° Southwest 443 510 38,000  Level FlightAware ADS-B
Mon 01:23:37 PM -22.1830 -41.9070 229° Southwest 445 512 38,000  Level FlightAware ADS-B
Mon 01:24:17 PM -22.2370 -41.9750 229° Southwest 444 511 38,000  Level FlightAware ADS-B
Mon 01:24:57 PM -22.2910 -42.0410 229° Southwest 443 510 38,000  Level FlightAware ADS-B
Mon 01:25:42 PM -22.3530 -42.1180 229° Southwest 444 511 38,000  Level FlightAware ADS-B
Mon 01:26:22 PM -22.4060 -42.1850 229° Southwest 443 510 38,000  Level FlightAware ADS-B
Mon 01:27:07 PM -22.4660 -42.2600 229° Southwest 443 510 38,000  Level FlightAware ADS-B
Mon 01:27:47 PM -22.5200 -42.3270 229° Southwest 444 511 38,000  Level FlightAware ADS-B
Mon 01:28:27 PM -22.5720 -42.3930 230° Southwest 445 512 38,000 -1,129 Level FlightAware ADS-B
Mon 01:29:12 PM -22.6350 -42.4720 229° Southwest 443 510 36,400 -2,188 Descending FlightAware ADS-B
Mon 01:29:52 PM -22.6850 -42.5400 231° Southwest 431 496 34,900 -1,694 Descending FlightAware ADS-B
Mon 01:30:37 PM -22.7050 -42.6260 256° West 381 438 34,000 -1,412 Descending FlightAware ADS-B
Mon 01:31:17 PM -22.7090 -42.6980 267° West 347 399 32,900 -2,550 Descending FlightAware ADS-B
Mon 01:31:57 PM -22.7110 -42.7660 268° West 333 383 30,600 -3,520 Descending FlightAware ADS-B
Mon 01:32:32 PM -22.7140 -42.8240 267° West 323 372 28,500 -2,960 Descending FlightAware ADS-B
Mon 01:33:12 PM -22.7070 -42.8890 277° West 323 372 26,900 -1,553 Descending FlightAware ADS-B
Mon 01:33:57 PM -22.6900 -42.9560 285° West 314 361 26,300 -900 Descending FlightAware ADS-B
Mon 01:34:32 PM -22.6760 -43.0110 285° West 308 354 25,700 -1,280 Descending FlightAware ADS-B
Mon 01:35:12 PM -22.6610 -43.0690 286° West 302 348 24,700 -1,482 Descending FlightAware ADS-B
Mon 01:35:57 PM -22.6450 -43.1340 285° West 301 346 23,600 -1,467 Descending FlightAware ADS-B
Mon 01:36:42 PM -22.6280 -43.2000 286° West 297 342 22,500 -1,482 Descending FlightAware ADS-B
Mon 01:37:22 PM -22.6130 -43.2570 286° West 296 341 21,500 -2,088 Descending FlightAware ADS-B
Mon 01:39:00 PM -22.8089 -43.2436 176° South  Level Estimated
Mon 01:40:00 PM -22.8089 -43.2436 137° Southeast  Level Estimated
Mon 01:40:52 PM -22.6780 -43.5130 137° Southeast 259 298 13,800  Level FlightAware ADS-B
Mon 01:41:32 PM -22.7010 -43.5610 243° Southwest 255 293 12,100 -1,800 Descending FlightAware ADS-B
Mon 01:42:22 PM -22.7260 -43.6130 242° Southwest 255 293 11,100 -600 Descending FlightAware ADS-B
Mon 01:43:12 PM -22.7480 -43.6620 244° Southwest 255 293 11,100  Level FlightAware ADS-B
Mon 01:43:52 PM -22.7670 -43.7000 242° Southwest 255 293 11,100 -2,448 Level FlightAware ADS-B
Mon 01:45:17 PM -22.8520 -43.5810 128° Southeast 228 262 6,000 -2,914 Descending FlightAware ADS-B
Mon 01:45:37 PM -22.8630 -43.5640 125° Southeast 220 253 6,000 -133 Level FlightAware ADS-B
Mon 01:46:02 PM -22.8730 -43.5370 112° Southeast 218 251 5,900 -840 Descending FlightAware ADS-B
Mon 01:46:27 PM -22.8680 -43.5110 78° East 217 250 5,300 -1,309 Descending FlightAware ADS-B
Mon 01:46:57 PM -22.8590 -43.4790 73° East 212 244 4,700 -1,200 Descending FlightAware ADS-B
Mon 01:47:22 PM -22.8530 -43.4540 75° East 214 246 4,200 -1,200 Descending FlightAware ADS-B
Mon 01:47:37 PM -22.8490 -43.4400 73° East 210 242 3,900 -600 Descending FlightAware ADS-B
Mon 01:48:12 PM -22.8420 -43.4100 76° East 204 235 3,700 -1,100 Descending FlightAware ADS-B
Mon 01:48:37 PM -22.8360 -43.3860 75° East 185 213 2,800 -1,477 Descending FlightAware ADS-B
Mon 01:49:17 PM -22.8260 -43.3500 73° East 172 198 2,100 -1,015 Descending FlightAware ADS-B
Mon 01:49:42 PM -22.8210 -43.3310 74° East 151 174 1,700 -900 Descending FlightAware ADS-B
Mon 01:49:57 PM -22.8190 -43.3210 78° East 149 171 1,500 -933 Descending FlightAware ADS-B
Mon 01:50:27 PM -22.8140 -43.3010 75° East 149 171 1,000 -982 Descending FlightAware ADS-B
Mon 01:50:52 PM -22.8090 -43.2830 73° East 151 174 600 -436 Descending FlightAware ADS-B
Mon 01:51:22 PM -22.8040 -43.2620 76° East 151 174 600  Level FlightAware ADS-B
Mon 01:53:00 PM -22.8089 -43.2436 106° East  Level Estimated
Mon 01:54:00 PM -22.8089 -43.2436 137° Southeast  Level Estimated
Mon 01:55:00 PM -22.8089 -43.2436 137° Southeast  Level Estimated
Mon 01:56:00 PM -22.8089 -43.2436 137° Southeast  Level Estimated
Mon 01:57:00 PM -22.8089 -43.2436 137° Southeast  Level Estimated

Login

Don't have an account? Register now (free) for customized features, flight alerts, and more!